createdAt,value
2016-11-02T00:00:24.874Z,25.3
2016-11-02T00:01:38.420Z,25.42
2016-11-02T00:02:52.352Z,25.39
2016-11-02T00:04:06.196Z,25.25
2016-11-02T00:05:19.244Z,25.23
2016-11-02T00:06:32.865Z,25.25
2016-11-02T00:07:46.518Z,25.14
2016-11-02T00:09:00.220Z,25.2
2016-11-02T00:10:13.995Z,25.17
2016-11-02T00:11:27.649Z,25.2
2016-11-02T00:12:41.392Z,25.17
2016-11-02T00:13:55.450Z,25.13
2016-11-02T00:15:09.032Z,25.08
2016-11-02T00:16:22.210Z,25
2016-11-02T00:17:35.739Z,24.93
2016-11-02T00:18:49.677Z,24.99
2016-11-02T00:20:03.363Z,24.95
2016-11-02T00:21:16.931Z,24.84
2016-11-02T00:22:30.699Z,24.91
2016-11-02T00:23:44.429Z,24.78
2016-11-02T00:24:58.118Z,24.76
2016-11-02T00:26:11.786Z,24.68
2016-11-02T00:27:25.903Z,24.8
2016-11-02T00:28:40.127Z,24.77
2016-11-02T00:29:53.752Z,24.6
2016-11-02T00:31:07.769Z,24.55
2016-11-02T00:32:21.383Z,24.57
2016-11-02T00:33:35.015Z,24.5
2016-11-02T00:34:48.773Z,24.6
2016-11-02T00:36:02.519Z,24.55
2016-11-02T00:37:16.331Z,24.6
2016-11-02T00:38:29.902Z,24.58
2016-11-02T00:39:43.828Z,24.42
2016-11-02T00:40:57.429Z,24.39
2016-11-02T00:42:11.108Z,24.47
2016-11-02T00:43:24.799Z,24.45
2016-11-02T00:44:38.760Z,24.4
2016-11-02T00:45:52.530Z,24.45
2016-11-02T00:47:06.365Z,24.46
2016-11-02T00:48:20.026Z,24.49
2016-11-02T00:49:33.704Z,24.4
2016-11-02T00:50:47.852Z,24.47
2016-11-02T00:52:01.697Z,24.39
2016-11-02T00:53:15.336Z,24.45
2016-11-02T00:54:28.649Z,24.39
2016-11-02T00:55:42.351Z,24.49
2016-11-02T00:56:56.038Z,24.45
2016-11-02T00:58:09.945Z,24.4
2016-11-02T00:59:23.826Z,24.39
2016-11-02T01:00:37.494Z,24.43
2016-11-02T01:01:51.391Z,24.39
2016-11-02T01:03:05.103Z,24.42
2016-11-02T01:04:18.693Z,24.4
2016-11-02T01:05:32.290Z,24.45
2016-11-02T01:06:45.960Z,24.35
2016-11-02T01:07:59.762Z,24.43
2016-11-02T01:09:14.081Z,24.42
2016-11-02T01:10:27.296Z,24.32
2016-11-02T01:11:40.898Z,24.25
2016-11-02T01:12:54.349Z,24.37
2016-11-02T01:14:07.741Z,24.28
2016-11-02T01:15:21.745Z,24.32
2016-11-02T01:16:35.448Z,24.31
2016-11-02T01:17:49.045Z,24.22
2016-11-02T01:19:02.528Z,24.22
2016-11-02T01:20:16.601Z,24.18
2016-11-02T01:21:30.538Z,24.24
2016-11-02T01:22:44.500Z,24.09
2016-11-02T01:23:58.258Z,24.06
2016-11-02T01:25:11.434Z,24.1
2016-11-02T01:26:25.031Z,24.13
2016-11-02T01:27:38.611Z,24.16
2016-11-02T01:28:52.472Z,24.05
2016-11-02T01:30:06.178Z,24.21
2016-11-02T01:31:19.869Z,24.22
2016-11-02T01:32:33.673Z,24.16
2016-11-02T01:33:47.827Z,24.16
2016-11-02T01:35:01.620Z,24.22
2016-11-02T01:36:16.474Z,24.15
2016-11-02T01:37:30.212Z,24.03
2016-11-02T01:38:44.027Z,24.1
2016-11-02T01:39:57.979Z,24.06
2016-11-02T01:41:11.290Z,24.08
2016-11-02T01:42:25.258Z,24.06
2016-11-02T01:43:39.060Z,24.08
2016-11-02T01:44:52.733Z,24.09
2016-11-02T01:46:06.700Z,24.06
2016-11-02T01:47:20.299Z,24.06
2016-11-02T01:48:34.030Z,24.09
2016-11-02T01:49:47.903Z,23.98
2016-11-02T01:51:01.622Z,24
2016-11-02T01:52:15.334Z,24.02
2016-11-02T01:53:28.979Z,23.97
2016-11-02T01:54:42.055Z,24
2016-11-02T01:55:55.666Z,24.02
2016-11-02T01:57:11.050Z,24
2016-11-02T01:58:24.734Z,23.98
2016-11-02T01:59:38.347Z,23.97
2016-11-02T02:00:51.995Z,24.06
2016-11-02T02:02:05.307Z,23.94
2016-11-02T02:03:19.009Z,23.88
2016-11-02T02:04:32.106Z,23.85
2016-11-02T02:05:45.796Z,23.95
2016-11-02T02:07:00.111Z,23.95
2016-11-02T02:08:13.702Z,23.85
2016-11-02T02:09:27.698Z,23.84
2016-11-02T02:10:41.431Z,23.95
2016-11-02T02:11:55.650Z,23.87
2016-11-02T02:13:09.307Z,23.88
2016-11-02T02:14:22.905Z,23.88
2016-11-02T02:15:36.676Z,23.88
2016-11-02T02:16:50.367Z,23.95
2016-11-02T02:18:03.967Z,23.8
2016-11-02T02:19:17.863Z,23.78
2016-11-02T02:20:31.524Z,23.87
2016-11-02T02:21:45.083Z,23.69
2016-11-02T02:22:58.855Z,23.75
2016-11-02T02:24:12.576Z,23.66
2016-11-02T02:25:26.410Z,23.7
2016-11-02T02:26:40.465Z,23.78
2016-11-02T02:27:54.025Z,23.7
2016-11-02T02:29:07.344Z,23.61
2016-11-02T02:30:20.949Z,23.58
2016-11-02T02:31:34.235Z,23.46
2016-11-02T02:32:47.883Z,23.51
2016-11-02T02:34:01.818Z,23.35
2016-11-02T02:35:15.437Z,23.32
2016-11-02T02:36:29.148Z,23.25
2016-11-02T02:37:42.973Z,23.28
2016-11-02T02:38:56.573Z,23.31
2016-11-02T02:40:10.389Z,23.28
2016-11-02T02:41:24.040Z,23.25
2016-11-02T02:42:37.225Z,23.19
2016-11-02T02:43:50.859Z,23.1
2016-11-02T02:45:04.415Z,23
2016-11-02T02:46:18.077Z,23.04
2016-11-02T02:47:31.617Z,22.94
2016-11-02T02:48:45.183Z,22.86
2016-11-02T02:49:59.581Z,22.9
2016-11-02T02:51:13.446Z,22.94
2016-11-02T02:52:27.116Z,22.82
2016-11-02T02:53:40.559Z,22.91
2016-11-02T02:54:54.169Z,22.76
2016-11-02T02:56:07.909Z,22.61
2016-11-02T02:57:21.510Z,22.62
2016-11-02T02:58:35.092Z,22.62
2016-11-02T02:59:48.659Z,22.68
2016-11-02T03:01:02.551Z,22.76
2016-11-02T03:02:16.151Z,22.76
2016-11-02T03:03:29.873Z,22.65
2016-11-02T03:04:43.633Z,22.68
2016-11-02T03:05:57.558Z,22.52
2016-11-02T03:07:11.385Z,22.64
2016-11-02T03:08:24.959Z,22.62
2016-11-02T03:09:38.583Z,22.54
2016-11-02T03:10:52.159Z,22.47
2016-11-02T03:12:05.990Z,22.57
2016-11-02T03:13:19.659Z,22.62
2016-11-02T03:14:33.275Z,22.76
2016-11-02T03:15:46.880Z,22.8
2016-11-02T03:17:00.785Z,22.64
2016-11-02T03:18:14.322Z,22.68
2016-11-02T03:19:27.922Z,22.67
2016-11-02T03:20:41.506Z,22.65
2016-11-02T03:21:55.123Z,22.67
2016-11-02T03:23:08.699Z,22.68
2016-11-02T03:24:22.314Z,22.67
2016-11-02T03:25:35.931Z,22.68
2016-11-02T03:26:49.570Z,22.68
2016-11-02T03:28:03.107Z,22.65
2016-11-02T03:29:16.142Z,22.68
2016-11-02T03:30:29.739Z,22.67
2016-11-02T03:31:43.405Z,22.33
2016-11-02T03:32:57.004Z,22.51
2016-11-02T03:34:10.613Z,22.31
2016-11-02T03:35:24.185Z,22.24
2016-11-02T03:36:37.806Z,22.15
2016-11-02T03:37:51.379Z,21.94
2016-11-02T03:39:05.008Z,22.12
2016-11-02T03:40:18.664Z,22.14
2016-11-02T03:41:32.184Z,22.21
2016-11-02T03:42:45.805Z,22.24
2016-11-02T03:43:59.334Z,22.27
2016-11-02T03:45:12.361Z,22.24
2016-11-02T03:46:26.025Z,22.22
2016-11-02T03:47:39.662Z,22.21
2016-11-02T03:48:53.164Z,22.24
2016-11-02T03:50:06.741Z,22.1
2016-11-02T03:51:20.305Z,22.12
2016-11-02T03:52:33.845Z,22.09
2016-11-02T03:53:47.493Z,22.17
2016-11-02T03:55:01.086Z,22.1
2016-11-02T03:56:14.731Z,22.15
2016-11-02T03:57:28.325Z,22.17
2016-11-02T03:58:41.826Z,22.17
2016-11-02T03:59:55.417Z,22.05
2016-11-02T04:01:08.977Z,22.17
2016-11-02T04:02:22.525Z,22.12
2016-11-02T04:03:37.500Z,22.12
2016-11-02T04:04:51.203Z,22.1
2016-11-02T04:06:04.823Z,22.17
2016-11-02T04:07:18.471Z,22.18
2016-11-02T04:08:32.046Z,22.17
2016-11-02T04:09:45.632Z,22.1
2016-11-02T04:10:58.749Z,22.1
2016-11-02T04:12:12.380Z,22.1
2016-11-02T04:13:26.068Z,22.15
2016-11-02T04:14:39.697Z,22.14
2016-11-02T04:15:53.316Z,22.15
2016-11-02T04:17:06.948Z,22.09
2016-11-02T04:18:20.727Z,21.92
2016-11-02T04:19:34.098Z,21.96
2016-11-02T04:20:47.761Z,21.99
2016-11-02T04:22:01.361Z,22.02
2016-11-02T04:23:14.980Z,22.07
2016-11-02T04:24:28.629Z,21.96
2016-11-02T04:25:42.252Z,22.06
2016-11-02T04:26:55.853Z,21.88
2016-11-02T04:28:09.485Z,21.84
2016-11-02T04:29:23.144Z,21.74
2016-11-02T04:30:36.767Z,21.65
2016-11-02T04:31:50.387Z,21.69
2016-11-02T04:33:03.452Z,21.69
2016-11-02T04:34:16.569Z,21.72
2016-11-02T04:35:30.201Z,21.64
2016-11-02T04:36:43.800Z,21.62
2016-11-02T04:37:57.389Z,21.72
2016-11-02T04:39:11.089Z,21.79
2016-11-02T04:40:24.179Z,21.71
2016-11-02T04:41:37.761Z,21.79
2016-11-02T04:42:51.406Z,21.83
2016-11-02T04:44:05.036Z,21.82
2016-11-02T04:45:18.636Z,21.82
2016-11-02T04:46:32.248Z,21.69
2016-11-02T04:47:45.943Z,21.72
2016-11-02T04:48:59.555Z,21.71
2016-11-02T04:50:13.497Z,21.67
2016-11-02T04:51:27.118Z,21.71
2016-11-02T04:52:40.740Z,21.71
2016-11-02T04:53:54.357Z,21.65
2016-11-02T04:55:08.015Z,21.75
2016-11-02T04:56:21.670Z,21.75
2016-11-02T04:57:35.298Z,21.72
2016-11-02T04:58:48.947Z,21.68
2016-11-02T05:00:02.683Z,21.83
2016-11-02T05:01:16.580Z,21.72
2016-11-02T05:02:30.160Z,21.75
2016-11-02T05:03:43.749Z,21.65
2016-11-02T05:04:57.408Z,21.68
2016-11-02T05:06:11.018Z,21.62
2016-11-02T05:07:24.375Z,21.59
2016-11-02T05:08:38.011Z,21.67
2016-11-02T05:09:51.611Z,21.56
2016-11-02T05:11:05.150Z,21.69
2016-11-02T05:12:18.712Z,21.71
2016-11-02T05:13:32.375Z,21.74
2016-11-02T05:14:46.080Z,21.59
2016-11-02T05:15:59.424Z,21.67
2016-11-02T05:17:13.083Z,21.67
2016-11-02T05:18:26.664Z,21.61
2016-11-02T05:19:40.400Z,21.56
2016-11-02T05:20:53.409Z,21.58
2016-11-02T05:22:06.528Z,21.61
2016-11-02T05:23:20.206Z,21.62
2016-11-02T05:24:33.817Z,21.59
2016-11-02T05:25:47.406Z,21.59
2016-11-02T05:27:00.638Z,21.53
2016-11-02T05:28:13.700Z,21.64
2016-11-02T05:29:27.307Z,21.49
2016-11-02T05:30:40.903Z,21.4
2016-11-02T05:31:54.539Z,21.28
2016-11-02T05:33:08.153Z,21.4
2016-11-02T05:34:21.759Z,21.44
2016-11-02T05:35:49.303Z,21.4
2016-11-02T05:37:01.869Z,21.44
2016-11-02T05:38:15.491Z,21.35
2016-11-02T05:39:28.838Z,21.49
2016-11-02T05:40:42.383Z,21.47
2016-11-02T05:41:55.907Z,21.5
2016-11-02T05:43:09.479Z,21.5
2016-11-02T05:44:23.106Z,21.46
2016-11-02T05:45:36.764Z,21.47
2016-11-02T05:46:50.296Z,21.47
2016-11-02T05:48:03.416Z,21.52
2016-11-02T05:49:17.070Z,21.47
2016-11-02T05:50:30.672Z,21.49
2016-11-02T05:51:43.504Z,21.5
2016-11-02T05:52:57.129Z,21.28
2016-11-02T05:54:10.758Z,21.24
2016-11-02T05:55:24.420Z,21.14
2016-11-02T05:56:38.060Z,21.21
2016-11-02T05:57:51.154Z,21.32
2016-11-02T05:59:04.197Z,21.24
2016-11-02T06:00:18.255Z,21.28
2016-11-02T06:01:31.883Z,21.32
2016-11-02T06:02:45.590Z,21.29
2016-11-02T06:03:59.178Z,21.31
2016-11-02T06:05:12.784Z,21.35
2016-11-02T06:06:26.470Z,21.28
2016-11-02T06:07:40.119Z,21.31
2016-11-02T06:08:53.942Z,21.32
2016-11-02T06:10:07.583Z,21.29
2016-11-02T06:11:21.213Z,21.28
2016-11-02T06:12:34.880Z,21.29
2016-11-02T06:13:48.459Z,21.25
2016-11-02T06:15:02.880Z,21.29
2016-11-02T06:16:16.677Z,21.25
2016-11-02T06:17:29.824Z,21.31
2016-11-02T06:18:43.076Z,21.34
2016-11-02T06:19:56.700Z,21.28
2016-11-02T06:21:10.480Z,21.28
2016-11-02T06:22:24.103Z,21.34
2016-11-02T06:23:37.783Z,21.38
2016-11-02T06:24:51.147Z,21.27
2016-11-02T06:26:04.755Z,21.27
2016-11-02T06:27:18.416Z,21.32
2016-11-02T06:28:31.463Z,21.29
2016-11-02T06:29:45.043Z,21.35
2016-11-02T06:30:58.694Z,21.32
2016-11-02T06:32:12.383Z,21.27
2016-11-02T06:33:25.965Z,21.31
2016-11-02T06:34:39.617Z,21.32
2016-11-02T06:35:53.241Z,21.31
2016-11-02T06:37:06.388Z,21.28
2016-11-02T06:38:20.077Z,21.37
2016-11-02T06:39:33.750Z,21.28
2016-11-02T06:40:47.392Z,21.42
2016-11-02T06:42:01.043Z,21.35
2016-11-02T06:43:14.600Z,21.35
2016-11-02T06:44:28.255Z,21.43
2016-11-02T06:45:41.611Z,21.34
2016-11-02T06:46:54.695Z,21.29
2016-11-02T06:48:08.340Z,21.27
2016-11-02T06:49:21.928Z,21.29
2016-11-02T06:50:35.031Z,21.31
2016-11-02T06:51:48.671Z,21.32
2016-11-02T06:53:01.806Z,21.17
2016-11-02T06:54:15.451Z,21.14
2016-11-02T06:55:29.149Z,21.24
2016-11-02T06:56:42.756Z,21.17
2016-11-02T06:57:56.177Z,21.19
2016-11-02T06:59:09.820Z,21.22
2016-11-02T07:00:22.920Z,21.22
2016-11-02T07:01:36.219Z,21.29
2016-11-02T07:02:49.309Z,21.27
2016-11-02T07:04:02.946Z,21.17
2016-11-02T07:05:16.696Z,21.13
2016-11-02T07:06:30.306Z,21.21
2016-11-02T07:07:43.677Z,21.22
2016-11-02T07:08:57.358Z,21.1
2016-11-02T07:10:10.957Z,21.09
2016-11-02T07:11:24.034Z,21.25
2016-11-02T07:12:37.598Z,21.25
2016-11-02T07:13:51.238Z,21.14
2016-11-02T07:15:04.835Z,21.21
2016-11-02T07:16:18.135Z,21.22
2016-11-02T07:17:31.756Z,21.22
2016-11-02T07:18:45.365Z,21.31
2016-11-02T07:19:58.440Z,21.34
2016-11-02T07:21:11.538Z,21.22
2016-11-02T07:22:25.176Z,21.25
2016-11-02T07:23:38.818Z,21.28
2016-11-02T07:24:52.477Z,21.32
2016-11-02T07:26:05.562Z,21.37
2016-11-02T07:27:19.225Z,21.35
2016-11-02T07:28:32.547Z,21.49
2016-11-02T07:29:46.296Z,21.47
2016-11-02T07:30:59.330Z,21.49
2016-11-02T07:32:13.007Z,21.59
2016-11-02T07:33:26.584Z,21.54
2016-11-02T07:34:40.184Z,21.61
2016-11-02T07:35:53.820Z,21.54
2016-11-02T07:37:07.384Z,21.64
2016-11-02T07:38:21.238Z,21.61
2016-11-02T07:39:34.796Z,21.5
2016-11-02T07:40:47.504Z,21.49
2016-11-02T07:42:00.595Z,21.52
2016-11-02T07:43:14.248Z,21.47
2016-11-02T07:44:27.809Z,21.46
2016-11-02T07:45:41.169Z,21.46
2016-11-02T07:46:54.786Z,21.44
2016-11-02T07:48:08.432Z,21.47
2016-11-02T07:49:21.513Z,21.46
2016-11-02T07:50:35.140Z,21.43
2016-11-02T07:51:48.142Z,21.32
2016-11-02T07:53:01.239Z,21.4
2016-11-02T07:54:14.882Z,21.37
2016-11-02T07:55:27.434Z,21.29
2016-11-02T07:56:40.721Z,21.24
2016-11-02T07:57:54.319Z,21.19
2016-11-02T07:59:07.878Z,21.27
2016-11-02T08:00:21.462Z,21.29
2016-11-02T08:01:35.089Z,21.29
2016-11-02T08:02:48.215Z,21.28
2016-11-02T08:04:01.337Z,21.29
2016-11-02T08:05:14.394Z,21.37
2016-11-02T08:06:27.936Z,21.34
2016-11-02T08:07:41.243Z,21.37
2016-11-02T08:08:54.837Z,21.35
2016-11-02T08:10:08.439Z,21.46
2016-11-02T08:11:22.038Z,21.5
2016-11-02T08:12:35.158Z,21.46
2016-11-02T08:13:48.780Z,21.54
2016-11-02T08:15:02.339Z,21.53
2016-11-02T08:16:15.315Z,21.61
2016-11-02T08:17:28.337Z,21.65
2016-11-02T08:18:41.992Z,21.59
2016-11-02T08:19:55.055Z,21.59
2016-11-02T08:21:08.233Z,21.61
2016-11-02T08:22:20.796Z,21.68
2016-11-02T08:23:34.432Z,21.68
2016-11-02T08:24:47.692Z,21.65
2016-11-02T08:26:01.305Z,21.67
2016-11-02T08:27:14.905Z,21.69
2016-11-02T08:28:28.492Z,21.67
2016-11-02T08:29:42.095Z,21.69
2016-11-02T08:30:55.741Z,21.67
2016-11-02T08:32:09.325Z,21.71
2016-11-02T08:33:23.012Z,21.67
2016-11-02T08:34:36.610Z,21.62
2016-11-02T08:35:49.696Z,21.71
2016-11-02T08:37:03.377Z,21.68
2016-11-02T08:38:17.067Z,21.72
2016-11-02T08:39:30.684Z,21.69
2016-11-02T08:40:44.068Z,21.56
2016-11-02T08:41:56.578Z,21.44
2016-11-02T08:43:09.097Z,21.43
2016-11-02T08:44:22.700Z,21.52
2016-11-02T08:45:35.742Z,21.44
2016-11-02T08:46:48.849Z,21.46
2016-11-02T08:48:01.877Z,21.42
2016-11-02T08:49:14.926Z,21.32
2016-11-02T08:50:28.467Z,21.42
2016-11-02T08:51:41.557Z,21.52
2016-11-02T08:52:55.163Z,21.54
2016-11-02T08:54:08.783Z,21.61
2016-11-02T08:55:21.845Z,21.52
2016-11-02T08:56:35.439Z,21.61
2016-11-02T08:57:47.489Z,21.62
2016-11-02T08:59:01.038Z,21.62
2016-11-02T09:00:14.641Z,21.67
2016-11-02T09:01:28.188Z,21.71
2016-11-02T09:02:41.308Z,21.8
2016-11-02T09:03:54.907Z,21.83
2016-11-02T09:05:08.477Z,21.91
2016-11-02T09:06:21.578Z,21.82
2016-11-02T09:07:34.593Z,21.79
2016-11-02T09:08:47.627Z,21.9
2016-11-02T09:10:00.676Z,21.91
2016-11-02T09:11:14.281Z,21.91
2016-11-02T09:12:27.591Z,22.02
2016-11-02T09:13:40.616Z,21.91
2016-11-02T09:14:54.246Z,22.03
2016-11-02T09:16:07.851Z,22.1
2016-11-02T09:17:21.406Z,22
2016-11-02T09:18:35.046Z,22.09
2016-11-02T09:19:48.103Z,22.07
2016-11-02T09:21:01.180Z,22.02
2016-11-02T09:22:14.692Z,22.02
2016-11-02T09:23:28.351Z,22.12
2016-11-02T09:24:41.968Z,22.05
2016-11-02T09:25:55.040Z,21.99
2016-11-02T09:27:08.636Z,22.07
2016-11-02T09:28:22.219Z,22.12
2016-11-02T09:29:35.796Z,22.05
2016-11-02T09:30:48.328Z,21.9
2016-11-02T09:32:01.979Z,21.88
2016-11-02T09:33:15.552Z,21.94
2016-11-02T09:34:28.853Z,21.94
2016-11-02T09:35:42.419Z,21.92
2016-11-02T09:36:55.461Z,21.86
2016-11-02T09:38:08.609Z,22.07
2016-11-02T09:39:21.600Z,22.05
2016-11-02T09:40:35.125Z,22.06
2016-11-02T09:41:47.685Z,22.14
2016-11-02T09:43:01.288Z,22.2
2016-11-02T09:44:14.464Z,22.2
2016-11-02T09:45:28.081Z,22.05
2016-11-02T09:46:41.700Z,22.2
2016-11-02T09:47:55.068Z,22.09
2016-11-02T09:49:08.125Z,22.17
2016-11-02T09:50:21.175Z,22.24
2016-11-02T09:51:34.711Z,22.27
2016-11-02T09:52:48.321Z,22.21
2016-11-02T09:54:01.419Z,22.24
2016-11-02T09:55:14.505Z,22.28
2016-11-02T09:56:28.058Z,22.27
2016-11-02T09:57:41.680Z,22.31
2016-11-02T09:58:55.263Z,22.36
2016-11-02T10:00:08.359Z,22.37
2016-11-02T10:01:21.396Z,22.35
2016-11-02T10:02:34.996Z,22.4
2016-11-02T10:03:48.107Z,22.39
2016-11-02T10:05:01.664Z,22.4
2016-11-02T10:06:15.266Z,22.45
2016-11-02T10:07:28.282Z,22.31
2016-11-02T10:08:41.883Z,22.49
2016-11-02T10:09:55.453Z,22.4
2016-11-02T10:11:09.038Z,22.4
2016-11-02T10:12:22.626Z,22.47
2016-11-02T10:13:35.643Z,22.47
2016-11-02T10:14:49.229Z,22.37
2016-11-02T10:16:02.836Z,22.43
2016-11-02T10:17:16.424Z,22.52
2016-11-02T10:18:29.417Z,22.55
2016-11-02T10:19:42.689Z,22.51
2016-11-02T10:20:56.281Z,22.6
2016-11-02T10:22:09.343Z,22.6
2016-11-02T10:23:22.920Z,22.72
2016-11-02T10:24:36.482Z,22.64
2016-11-02T10:25:50.035Z,22.7
2016-11-02T10:27:03.081Z,22.67
2016-11-02T10:28:16.689Z,22.6
2016-11-02T10:29:30.271Z,22.7
2016-11-02T10:30:43.813Z,22.67
2016-11-02T10:31:57.537Z,22.65
2016-11-02T10:33:11.305Z,22.76
2016-11-02T10:34:24.367Z,22.76
2016-11-02T10:35:37.927Z,22.82
2016-11-02T10:36:51.711Z,22.83
2016-11-02T10:38:05.275Z,22.85
2016-11-02T10:39:18.362Z,22.91
2016-11-02T10:40:31.906Z,22.98
2016-11-02T10:41:44.920Z,22.92
2016-11-02T10:42:57.975Z,22.92
2016-11-02T10:44:11.552Z,22.95
2016-11-02T10:45:25.177Z,22.92
2016-11-02T10:46:38.772Z,22.97
2016-11-02T10:47:52.405Z,23.1
2016-11-02T10:49:05.553Z,22.95
2016-11-02T10:50:18.777Z,23.12
2016-11-02T10:51:32.377Z,23.15
2016-11-02T10:52:45.452Z,23.16
2016-11-02T10:53:58.981Z,23.19
2016-11-02T10:55:12.306Z,23.27
2016-11-02T10:56:25.935Z,23.36
2016-11-02T10:57:38.496Z,23.36
2016-11-02T10:58:52.044Z,23.43
2016-11-02T11:00:05.072Z,23.57
2016-11-02T11:01:18.808Z,23.53
2016-11-02T11:02:32.462Z,23.47
2016-11-02T11:03:46.143Z,23.58
2016-11-02T11:04:59.745Z,23.57
2016-11-02T11:06:13.391Z,23.68
2016-11-02T11:07:25.847Z,23.7
2016-11-02T11:08:38.884Z,23.7
2016-11-02T11:09:52.594Z,23.7
2016-11-02T11:11:06.146Z,23.79
2016-11-02T11:12:19.721Z,23.87
2016-11-02T11:13:33.293Z,23.95
2016-11-02T11:14:46.888Z,24
2016-11-02T11:16:00.563Z,24.09
2016-11-02T11:17:13.818Z,24.16
2016-11-02T11:18:27.443Z,24.22
2016-11-02T11:19:41.418Z,24.42
2016-11-02T11:20:55.051Z,24.34
2016-11-02T11:22:08.656Z,24.47
2016-11-02T11:23:21.883Z,24.4
2016-11-02T11:24:35.509Z,24.45
2016-11-02T11:25:48.481Z,24.52
2016-11-02T11:27:01.530Z,24.53
2016-11-02T11:28:15.071Z,24.61
2016-11-02T11:29:28.736Z,24.57
2016-11-02T11:30:42.042Z,24.69
2016-11-02T11:31:54.040Z,24.69
2016-11-02T11:33:07.646Z,24.81
2016-11-02T11:34:20.176Z,24.9
2016-11-02T11:35:33.767Z,24.91
2016-11-02T11:36:47.673Z,24.96
2016-11-02T11:38:01.358Z,24.95
2016-11-02T11:39:14.486Z,24.93
2016-11-02T11:40:27.518Z,25.03
2016-11-02T11:41:41.395Z,25.02
2016-11-02T11:42:54.433Z,25.03
2016-11-02T11:44:07.504Z,24.99
2016-11-02T11:45:21.073Z,25.03
2016-11-02T11:46:33.589Z,25.06
2016-11-02T11:47:46.989Z,25.2
2016-11-02T11:49:00.623Z,25.28
2016-11-02T11:50:13.669Z,25.17
2016-11-02T11:51:27.262Z,25.21
2016-11-02T11:52:40.528Z,25.24
2016-11-02T11:53:54.155Z,25.2
2016-11-02T11:55:06.650Z,25.28
2016-11-02T11:56:20.215Z,25.23
2016-11-02T11:57:33.780Z,25.42
2016-11-02T11:58:47.688Z,25.32
2016-11-02T12:00:01.302Z,25.42
2016-11-02T12:01:14.971Z,25.51
2016-11-02T12:02:28.619Z,25.43
2016-11-02T12:03:41.614Z,25.46
2016-11-02T12:04:54.684Z,25.46
2016-11-02T12:06:08.032Z,25.52
2016-11-02T12:07:21.961Z,25.6
2016-11-02T12:08:35.545Z,25.61
2016-11-02T12:09:48.306Z,25.75
2016-11-02T12:11:01.346Z,25.94
2016-11-02T12:12:14.925Z,25.98
2016-11-02T12:13:27.978Z,25.92
2016-11-02T12:14:41.366Z,26.01
2016-11-02T12:15:54.455Z,26.21
2016-11-02T12:17:08.027Z,26.26
2016-11-02T12:18:21.882Z,26.3
2016-11-02T12:19:35.448Z,26.29
2016-11-02T12:20:49.084Z,26.3
2016-11-02T12:22:02.215Z,26.36
2016-11-02T12:23:15.843Z,26.44
2016-11-02T12:24:29.511Z,26.33
2016-11-02T12:25:42.628Z,26.57
2016-11-02T12:26:55.142Z,26.58
2016-11-02T12:28:08.672Z,26.54
2016-11-02T12:29:22.230Z,26.57
2016-11-02T12:30:35.806Z,26.67
2016-11-02T12:31:49.421Z,26.65
2016-11-02T12:33:02.468Z,26.72
2016-11-02T12:34:16.146Z,26.65
2016-11-02T12:35:28.921Z,26.76
2016-11-02T12:36:42.026Z,26.82
2016-11-02T12:37:55.631Z,26.95
2016-11-02T12:39:09.316Z,26.99
2016-11-02T12:40:23.014Z,27.12
2016-11-02T12:41:36.557Z,27.1
2016-11-02T12:42:50.187Z,27.12
2016-11-02T12:44:03.770Z,27.21
2016-11-02T12:45:16.815Z,27.18
2016-11-02T12:46:29.952Z,27.34
2016-11-02T12:47:43.554Z,27.32
2016-11-02T12:48:57.217Z,27.34
2016-11-02T12:50:10.884Z,27.59
2016-11-02T12:51:24.419Z,27.62
2016-11-02T12:52:37.504Z,27.65
2016-11-02T12:53:51.051Z,27.62
2016-11-02T12:55:04.665Z,27.47
2016-11-02T12:56:18.232Z,27.6
2016-11-02T12:57:30.981Z,27.75
2016-11-02T12:58:44.644Z,27.6
2016-11-02T12:59:57.465Z,27.65
2016-11-02T13:01:11.114Z,27.77
2016-11-02T13:02:24.696Z,27.66
2016-11-02T13:03:38.284Z,27.6
2016-11-02T13:04:52.096Z,27.5
2016-11-02T13:06:05.674Z,27.34
2016-11-02T13:07:18.209Z,27.4
2016-11-02T13:08:31.250Z,27.24
2016-11-02T13:09:44.289Z,27.22
2016-11-02T13:10:57.628Z,27.19
2016-11-02T13:12:11.247Z,27.43
2016-11-02T13:13:24.348Z,27.63
2016-11-02T13:14:37.988Z,27.7
2016-11-02T13:15:51.634Z,27.81
2016-11-02T13:17:05.343Z,27.88
2016-11-02T13:18:18.645Z,27.7
2016-11-02T13:19:32.364Z,27.55
2016-11-02T13:20:45.990Z,27.41
2016-11-02T13:21:58.503Z,27.78
2016-11-02T13:23:11.906Z,27.88
2016-11-02T13:24:24.987Z,28.18
2016-11-02T13:25:38.633Z,28.21
2016-11-02T13:26:52.472Z,28.27
2016-11-02T13:28:05.564Z,28.3
2016-11-02T13:29:18.625Z,28.48
2016-11-02T13:30:31.704Z,28.31
2016-11-02T13:31:45.308Z,28.29
2016-11-02T13:32:58.941Z,28.58
2016-11-02T13:34:11.874Z,28.74
2016-11-02T13:35:24.953Z,28.68
2016-11-02T13:36:38.583Z,28.62
2016-11-02T13:37:51.679Z,28.67
2016-11-02T13:39:04.731Z,28.71
2016-11-02T13:40:18.346Z,28.7
2016-11-02T13:41:31.876Z,28.86
2016-11-02T13:42:44.980Z,28.76
2016-11-02T13:43:58.098Z,28.74
2016-11-02T13:45:11.869Z,28.8
2016-11-02T13:46:25.462Z,28.85
2016-11-02T13:47:38.951Z,28.8
2016-11-02T13:48:52.522Z,28.76
2016-11-02T13:50:06.152Z,28.71
2016-11-02T13:51:19.718Z,28.81
2016-11-02T13:52:33.351Z,28.88
2016-11-02T13:53:46.907Z,28.78
2016-11-02T13:55:00.000Z,28.74
2016-11-02T13:56:13.646Z,28.78
2016-11-02T13:57:27.276Z,28.81
2016-11-02T13:58:40.820Z,28.96
2016-11-02T13:59:54.331Z,28.98
2016-11-02T14:01:08.054Z,28.81
2016-11-02T14:02:21.679Z,28.68
2016-11-02T14:03:35.302Z,28.67
2016-11-02T14:04:48.867Z,28.58
2016-11-02T14:06:02.174Z,28.29
2016-11-02T14:07:15.262Z,28.29
2016-11-02T14:08:28.823Z,28.4
2016-11-02T14:09:42.419Z,28.33
2016-11-02T14:10:54.939Z,28.51
2016-11-02T14:12:08.510Z,28.59
2016-11-02T14:13:22.395Z,28.37
2016-11-02T14:14:35.998Z,28.4
2016-11-02T14:15:49.414Z,28.37
2016-11-02T14:17:03.027Z,28.52
2016-11-02T14:18:16.641Z,28.59
2016-11-02T14:19:30.271Z,28.92
2016-11-02T14:20:43.829Z,29.26
2016-11-02T14:21:56.559Z,29.49
2016-11-02T14:23:10.155Z,29.78
2016-11-02T14:24:23.724Z,29.8
2016-11-02T14:25:37.378Z,29.82
2016-11-02T14:26:51.016Z,29.79
2016-11-02T14:28:04.855Z,29.97
2016-11-02T14:29:18.577Z,30.53
2016-11-02T14:30:32.199Z,30.82
2016-11-02T14:31:45.864Z,30.92
2016-11-02T14:32:59.450Z,31.1
2016-11-02T14:34:13.077Z,31.54
2016-11-02T14:35:26.686Z,31.58
2016-11-02T14:36:40.397Z,31.61
2016-11-02T14:37:53.991Z,31.35
2016-11-02T14:39:07.568Z,31.06
2016-11-02T14:40:21.175Z,30.97
2016-11-02T14:41:34.789Z,31.04
2016-11-02T14:42:48.418Z,30.91
2016-11-02T14:44:02.027Z,31.19
2016-11-02T14:45:15.653Z,30.98
2016-11-02T14:46:29.230Z,30.97
2016-11-02T14:47:42.859Z,30.79
2016-11-02T14:48:56.469Z,30.86
2016-11-02T14:50:10.077Z,30.64
2016-11-02T14:51:23.678Z,30.46
2016-11-02T14:52:37.274Z,30.39
2016-11-02T14:53:51.131Z,30.46
2016-11-02T14:55:04.777Z,30.83
2016-11-02T14:56:18.514Z,31.31
2016-11-02T14:57:32.152Z,31.68
2016-11-02T14:58:45.832Z,31.93
2016-11-02T14:59:58.886Z,32.5
2016-11-02T15:01:12.509Z,32.93
2016-11-02T15:02:26.109Z,32.92
2016-11-02T15:03:39.735Z,32.51
2016-11-02T15:04:52.787Z,32.55
2016-11-02T15:06:06.268Z,32.56
2016-11-02T15:07:19.846Z,32.72
2016-11-02T15:08:33.445Z,32.51
2016-11-02T15:09:46.979Z,32.79
2016-11-02T15:11:00.595Z,32.81
2016-11-02T15:12:14.223Z,32.79
2016-11-02T15:13:27.851Z,33.06
2016-11-02T15:14:41.473Z,32.75
2016-11-02T15:15:55.449Z,33.07
2016-11-02T15:17:09.216Z,32.93
2016-11-02T15:18:22.821Z,33.12
2016-11-02T15:19:36.738Z,33.38
2016-11-02T15:20:50.409Z,33.54
2016-11-02T15:22:04.068Z,33.54
2016-11-02T15:23:17.990Z,33.9
2016-11-02T15:24:31.554Z,34.39
2016-11-02T15:25:45.073Z,34.28
2016-11-02T15:26:58.649Z,34.31
2016-11-02T15:28:12.252Z,33.9
2016-11-02T15:29:25.812Z,33.15
2016-11-02T15:30:39.440Z,32.88
2016-11-02T15:31:53.039Z,32.69
2016-11-02T15:33:06.347Z,32.63
2016-11-02T15:34:19.923Z,33.11
2016-11-02T15:35:33.602Z,33.44
2016-11-02T15:36:47.271Z,33.51
2016-11-02T15:38:00.550Z,33.72
2016-11-02T15:39:14.157Z,33.39
2016-11-02T15:40:27.772Z,32.65
2016-11-02T15:41:41.374Z,32.66
2016-11-02T15:42:54.988Z,32.28
2016-11-02T15:44:08.589Z,32.33
2016-11-02T15:45:21.901Z,32.35
2016-11-02T15:46:35.496Z,32.08
2016-11-02T15:47:49.339Z,32.13
2016-11-02T15:49:02.940Z,31.91
2016-11-02T15:50:15.794Z,31.41
2016-11-02T15:51:29.462Z,31.25